sensor_id;sensor_type;location;lat;lon;timestamp;P1;durP1;ratioP1;P2;durP2;ratioP2
59607;SDS011;45426;44.726;10.390;2023-09-07T00:00:48;9.02;;;4.90;;
59607;SDS011;45426;44.726;10.390;2023-09-07T00:03:13;10.50;;;5.00;;
59607;SDS011;45426;44.726;10.390;2023-09-07T00:05:39;11.90;;;5.57;;
59607;SDS011;45426;44.726;10.390;2023-09-07T00:08:05;9.15;;;5.00;;
59607;SDS011;45426;44.726;10.390;2023-09-07T00:10:32;10.75;;;5.03;;
59607;SDS011;45426;44.726;10.390;2023-09-07T00:13:00;8.27;;;4.80;;
59607;SDS011;45426;44.726;10.390;2023-09-07T00:15:27;7.18;;;4.60;;
59607;SDS011;45426;44.726;10.390;2023-09-07T00:17:53;8.50;;;4.72;;
59607;SDS011;45426;44.726;10.390;2023-09-07T00:20:18;8.40;;;5.22;;
59607;SDS011;45426;44.726;10.390;2023-09-07T00:22:44;10.57;;;4.75;;
59607;SDS011;45426;44.726;10.390;2023-09-07T00:25:09;9.15;;;4.95;;
59607;SDS011;45426;44.726;10.390;2023-09-07T00:27:35;7.43;;;4.47;;
59607;SDS011;45426;44.726;10.390;2023-09-07T00:30:01;8.98;;;4.50;;
59607;SDS011;45426;44.726;10.390;2023-09-07T00:32:29;8.50;;;4.45;;
59607;SDS011;45426;44.726;10.390;2023-09-07T00:34:55;8.32;;;4.57;;
59607;SDS011;45426;44.726;10.390;2023-09-07T00:37:20;9.95;;;4.55;;
59607;SDS011;45426;44.726;10.390;2023-09-07T00:39:46;7.75;;;4.30;;
59607;SDS011;45426;44.726;10.390;2023-09-07T00:42:11;8.27;;;4.50;;
59607;SDS011;45426;44.726;10.390;2023-09-07T00:44:37;7.88;;;4.40;;
59607;SDS011;45426;44.726;10.390;2023-09-07T00:47:02;7.68;;;4.60;;
59607;SDS011;45426;44.726;10.390;2023-09-07T00:49:30;7.28;;;4.63;;
59607;SDS011;45426;44.726;10.390;2023-09-07T00:51:55;9.00;;;4.25;;
59607;SDS011;45426;44.726;10.390;2023-09-07T00:54:21;7.03;;;4.30;;
59607;SDS011;45426;44.726;10.390;2023-09-07T00:56:46;7.68;;;4.50;;
59607;SDS011;45426;44.726;10.390;2023-09-07T00:59:12;8.60;;;4.70;;
59607;SDS011;45426;44.726;10.390;2023-09-07T01:01:38;8.90;;;4.40;;
59607;SDS011;45426;44.726;10.390;2023-09-07T01:04:03;7.85;;;4.38;;
59607;SDS011;45426;44.726;10.390;2023-09-07T01:06:30;8.95;;;4.90;;
59607;SDS011;45426;44.726;10.390;2023-09-07T01:09:02;14.85;;;4.55;;
59607;SDS011;45426;44.726;10.390;2023-09-07T01:11:35;9.02;;;4.63;;
59607;SDS011;45426;44.726;10.390;2023-09-07T01:14:02;9.95;;;4.50;;
59607;SDS011;45426;44.726;10.390;2023-09-07T01:16:29;7.50;;;4.50;;
59607;SDS011;45426;44.726;10.390;2023-09-07T01:18:55;6.72;;;4.35;;
59607;SDS011;45426;44.726;10.390;2023-09-07T01:21:21;8.30;;;4.55;;
59607;SDS011;45426;44.726;10.390;2023-09-07T01:23:47;7.13;;;4.30;;
59607;SDS011;45426;44.726;10.390;2023-09-07T01:26:14;8.20;;;4.72;;
59607;SDS011;45426;44.726;10.390;2023-09-07T01:28:39;10.50;;;4.72;;
59607;SDS011;45426;44.726;10.390;2023-09-07T01:31:05;9.10;;;4.22;;
59607;SDS011;45426;44.726;10.390;2023-09-07T01:33:31;7.53;;;4.32;;
59607;SDS011;45426;44.726;10.390;2023-09-07T01:35:57;9.85;;;4.63;;
59607;SDS011;45426;44.726;10.390;2023-09-07T01:38:22;10.15;;;4.55;;
59607;SDS011;45426;44.726;10.390;2023-09-07T01:40:48;7.18;;;4.20;;
59607;SDS011;45426;44.726;10.390;2023-09-07T01:43:13;8.50;;;4.80;;
59607;SDS011;45426;44.726;10.390;2023-09-07T01:45:38;7.47;;;4.32;;
59607;SDS011;45426;44.726;10.390;2023-09-07T01:48:07;8.88;;;4.75;;
59607;SDS011;45426;44.726;10.390;2023-09-07T01:50:35;8.73;;;4.30;;
59607;SDS011;45426;44.726;10.390;2023-09-07T01:53:01;8.25;;;4.90;;
59607;SDS011;45426;44.726;10.390;2023-09-07T01:55:28;8.20;;;4.80;;
59607;SDS011;45426;44.726;10.390;2023-09-07T01:57:53;7.60;;;4.53;;
59607;SDS011;45426;44.726;10.390;2023-09-07T02:00:19;6.95;;;4.60;;
59607;SDS011;45426;44.726;10.390;2023-09-07T02:02:44;8.63;;;4.85;;
59607;SDS011;45426;44.726;10.390;2023-09-07T02:05:09;9.45;;;5.00;;
59607;SDS011;45426;44.726;10.390;2023-09-07T02:07:35;8.27;;;4.70;;
59607;SDS011;45426;44.726;10.390;2023-09-07T02:10:01;7.40;;;4.75;;
59607;SDS011;45426;44.726;10.390;2023-09-07T02:12:28;9.27;;;5.07;;
59607;SDS011;45426;44.726;10.390;2023-09-07T02:14:54;7.65;;;4.85;;
59607;SDS011;45426;44.726;10.390;2023-09-07T02:17:20;10.30;;;5.47;;
59607;SDS011;45426;44.726;10.390;2023-09-07T02:19:46;8.88;;;5.30;;
59607;SDS011;45426;44.726;10.390;2023-09-07T02:22:11;9.32;;;5.20;;
59607;SDS011;45426;44.726;10.390;2023-09-07T02:24:37;8.95;;;5.38;;
59607;SDS011;45426;44.726;10.390;2023-09-07T02:27:02;9.07;;;5.60;;
59607;SDS011;45426;44.726;10.390;2023-09-07T02:29:28;10.68;;;5.82;;
59607;SDS011;45426;44.726;10.390;2023-09-07T02:31:53;8.15;;;5.00;;
59607;SDS011;45426;44.726;10.390;2023-09-07T02:34:19;9.07;;;4.95;;
59607;SDS011;45426;44.726;10.390;2023-09-07T02:36:44;9.50;;;5.00;;
59607;SDS011;45426;44.726;10.390;2023-09-07T02:39:10;8.50;;;4.88;;
59607;SDS011;45426;44.726;10.390;2023-09-07T02:41:37;11.23;;;5.35;;
59607;SDS011;45426;44.726;10.390;2023-09-07T02:44:03;9.20;;;5.80;;
59607;SDS011;45426;44.726;10.390;2023-09-07T02:46:29;10.15;;;5.78;;
59607;SDS011;45426;44.726;10.390;2023-09-07T02:48:55;10.15;;;5.70;;
59607;SDS011;45426;44.726;10.390;2023-09-07T02:51:22;11.10;;;6.22;;
59607;SDS011;45426;44.726;10.390;2023-09-07T02:53:49;10.57;;;6.88;;
59607;SDS011;45426;44.726;10.390;2023-09-07T02:56:14;10.52;;;6.30;;
59607;SDS011;45426;44.726;10.390;2023-09-07T02:58:40;10.23;;;6.50;;
59607;SDS011;45426;44.726;10.390;2023-09-07T03:01:06;10.60;;;6.50;;
59607;SDS011;45426;44.726;10.390;2023-09-07T03:03:34;12.45;;;6.78;;
59607;SDS011;45426;44.726;10.390;2023-09-07T03:06:07;12.50;;;7.05;;
59607;SDS011;45426;44.726;10.390;2023-09-07T03:08:36;10.85;;;6.43;;
59607;SDS011;45426;44.726;10.390;2023-09-07T03:11:05;11.10;;;6.85;;
59607;SDS011;45426;44.726;10.390;2023-09-07T03:13:31;12.55;;;6.78;;
59607;SDS011;45426;44.726;10.390;2023-09-07T03:15:57;11.88;;;6.43;;
59607;SDS011;45426;44.726;10.390;2023-09-07T03:18:23;10.25;;;6.53;;
59607;SDS011;45426;44.726;10.390;2023-09-07T03:20:49;13.35;;;6.30;;
59607;SDS011;45426;44.726;10.390;2023-09-07T03:23:15;9.63;;;6.28;;
59607;SDS011;45426;44.726;10.390;2023-09-07T03:25:41;11.68;;;6.47;;
59607;SDS011;45426;44.726;10.390;2023-09-07T03:28:06;9.65;;;6.47;;
59607;SDS011;45426;44.726;10.390;2023-09-07T03:30:32;10.82;;;6.47;;
59607;SDS011;45426;44.726;10.390;2023-09-07T03:32:58;8.75;;;5.88;;
59607;SDS011;45426;44.726;10.390;2023-09-07T03:35:23;9.77;;;5.70;;
59607;SDS011;45426;44.726;10.390;2023-09-07T03:37:49;10.40;;;5.53;;
59607;SDS011;45426;44.726;10.390;2023-09-07T03:40:14;8.75;;;5.22;;
59607;SDS011;45426;44.726;10.390;2023-09-07T03:42:40;10.35;;;5.45;;
59607;SDS011;45426;44.726;10.390;2023-09-07T03:45:05;9.23;;;5.03;;
59607;SDS011;45426;44.726;10.390;2023-09-07T03:47:32;8.85;;;5.20;;
59607;SDS011;45426;44.726;10.390;2023-09-07T03:49:58;7.57;;;4.88;;
59607;SDS011;45426;44.726;10.390;2023-09-07T03:52:24;7.57;;;4.70;;
59607;SDS011;45426;44.726;10.390;2023-09-07T03:54:51;10.63;;;4.50;;
59607;SDS011;45426;44.726;10.390;2023-09-07T03:57:18;9.30;;;4.88;;
59607;SDS011;45426;44.726;10.390;2023-09-07T03:59:45;9.60;;;4.38;;
59607;SDS011;45426;44.726;10.390;2023-09-07T04:02:10;9.07;;;4.50;;
59607;SDS011;45426;44.726;10.390;2023-09-07T04:04:36;8.57;;;4.70;;
59607;SDS011;45426;44.726;10.390;2023-09-07T04:07:01;8.23;;;4.65;;
59607;SDS011;45426;44.726;10.390;2023-09-07T04:09:27;11.05;;;4.47;;
59607;SDS011;45426;44.726;10.390;2023-09-07T04:11:52;7.50;;;4.55;;
59607;SDS011;45426;44.726;10.390;2023-09-07T04:14:17;9.35;;;4.40;;
59607;SDS011;45426;44.726;10.390;2023-09-07T04:16:43;8.05;;;4.43;;
59607;SDS011;45426;44.726;10.390;2023-09-07T04:19:08;9.23;;;4.60;;
59607;SDS011;45426;44.726;10.390;2023-09-07T04:21:35;7.60;;;4.18;;
59607;SDS011;45426;44.726;10.390;2023-09-07T04:24:01;7.43;;;3.90;;
59607;SDS011;45426;44.726;10.390;2023-09-07T04:26:27;7.90;;;4.47;;
59607;SDS011;45426;44.726;10.390;2023-09-07T04:28:52;8.05;;;4.15;;
59607;SDS011;45426;44.726;10.390;2023-09-07T04:31:18;8.20;;;4.70;;
59607;SDS011;45426;44.726;10.390;2023-09-07T04:33:43;8.82;;;4.82;;
59607;SDS011;45426;44.726;10.390;2023-09-07T04:36:09;7.95;;;4.85;;
59607;SDS011;45426;44.726;10.390;2023-09-07T04:38:36;8.32;;;4.97;;
59607;SDS011;45426;44.726;10.390;2023-09-07T04:41:08;8.77;;;4.88;;
59607;SDS011;45426;44.726;10.390;2023-09-07T04:43:34;8.38;;;5.15;;
59607;SDS011;45426;44.726;10.390;2023-09-07T04:46:00;8.85;;;5.07;;
59607;SDS011;45426;44.726;10.390;2023-09-07T04:48:25;9.15;;;4.80;;
59607;SDS011;45426;44.726;10.390;2023-09-07T04:50:57;8.27;;;4.75;;
59607;SDS011;45426;44.726;10.390;2023-09-07T04:53:33;8.57;;;4.80;;
59607;SDS011;45426;44.726;10.390;2023-09-07T04:56:01;7.97;;;4.80;;
59607;SDS011;45426;44.726;10.390;2023-09-07T04:58:27;9.40;;;4.72;;
59607;SDS011;45426;44.726;10.390;2023-09-07T05:00:53;8.38;;;4.78;;
59607;SDS011;45426;44.726;10.390;2023-09-07T05:03:19;8.07;;;4.75;;
59607;SDS011;45426;44.726;10.390;2023-09-07T05:05:44;8.55;;;4.43;;
59607;SDS011;45426;44.726;10.390;2023-09-07T05:08:10;10.10;;;4.53;;
59607;SDS011;45426;44.726;10.390;2023-09-07T05:10:36;11.10;;;5.20;;
59607;SDS011;45426;44.726;10.390;2023-09-07T05:13:03;10.45;;;5.00;;
59607;SDS011;45426;44.726;10.390;2023-09-07T05:15:28;9.02;;;5.07;;
59607;SDS011;45426;44.726;10.390;2023-09-07T05:17:54;8.70;;;4.60;;
59607;SDS011;45426;44.726;10.390;2023-09-07T05:20:23;9.77;;;5.00;;
59607;SDS011;45426;44.726;10.390;2023-09-07T05:22:48;12.10;;;5.22;;
59607;SDS011;45426;44.726;10.390;2023-09-07T05:25:13;9.98;;;4.93;;
59607;SDS011;45426;44.726;10.390;2023-09-07T05:27:39;8.57;;;4.93;;
59607;SDS011;45426;44.726;10.390;2023-09-07T05:30:05;8.80;;;4.72;;
59607;SDS011;45426;44.726;10.390;2023-09-07T05:32:31;9.38;;;4.85;;
59607;SDS011;45426;44.726;10.390;2023-09-07T05:34:56;14.05;;;4.80;;
59607;SDS011;45426;44.726;10.390;2023-09-07T05:37:22;10.80;;;5.28;;
59607;SDS011;45426;44.726;10.390;2023-09-07T05:39:47;8.80;;;4.90;;
59607;SDS011;45426;44.726;10.390;2023-09-07T05:42:13;9.45;;;5.00;;
59607;SDS011;45426;44.726;10.390;2023-09-07T05:44:39;7.05;;;4.38;;
59607;SDS011;45426;44.726;10.390;2023-09-07T05:47:05;9.48;;;4.47;;
59607;SDS011;45426;44.726;10.390;2023-09-07T05:49:31;13.38;;;4.32;;
59607;SDS011;45426;44.726;10.390;2023-09-07T05:51:56;11.98;;;4.35;;
59607;SDS011;45426;44.726;10.390;2023-09-07T05:54:22;9.27;;;5.00;;
59607;SDS011;45426;44.726;10.390;2023-09-07T05:56:47;10.57;;;4.78;;
59607;SDS011;45426;44.726;10.390;2023-09-07T05:59:12;9.65;;;4.80;;
59607;SDS011;45426;44.726;10.390;2023-09-07T06:01:38;7.72;;;4.53;;
59607;SDS011;45426;44.726;10.390;2023-09-07T06:04:05;10.15;;;4.70;;
59607;SDS011;45426;44.726;10.390;2023-09-07T06:06:31;11.00;;;4.60;;
59607;SDS011;45426;44.726;10.390;2023-09-07T06:08:56;12.40;;;4.55;;
59607;SDS011;45426;44.726;10.390;2023-09-07T06:11:24;9.45;;;4.60;;
59607;SDS011;45426;44.726;10.390;2023-09-07T06:13:49;10.73;;;4.57;;
59607;SDS011;45426;44.726;10.390;2023-09-07T06:16:15;8.23;;;4.35;;
59607;SDS011;45426;44.726;10.390;2023-09-07T06:18:40;10.68;;;4.60;;
59607;SDS011;45426;44.726;10.390;2023-09-07T06:21:06;7.63;;;3.78;;
59607;SDS011;45426;44.726;10.390;2023-09-07T06:23:31;12.02;;;4.15;;
59607;SDS011;45426;44.726;10.390;2023-09-07T06:25:57;8.50;;;3.90;;
59607;SDS011;45426;44.726;10.390;2023-09-07T06:28:22;7.78;;;4.00;;
59607;SDS011;45426;44.726;10.390;2023-09-07T06:30:47;9.38;;;4.00;;
59607;SDS011;45426;44.726;10.390;2023-09-07T06:33:13;8.38;;;4.05;;
59607;SDS011;45426;44.726;10.390;2023-09-07T06:35:38;8.68;;;4.10;;
59607;SDS011;45426;44.726;10.390;2023-09-07T06:38:04;8.57;;;4.00;;
59607;SDS011;45426;44.726;10.390;2023-09-07T06:40:29;7.13;;;3.80;;
59607;SDS011;45426;44.726;10.390;2023-09-07T06:42:55;7.53;;;3.95;;
59607;SDS011;45426;44.726;10.390;2023-09-07T06:45:22;11.02;;;3.90;;
59607;SDS011;45426;44.726;10.390;2023-09-07T06:47:51;8.52;;;3.88;;
59607;SDS011;45426;44.726;10.390;2023-09-07T06:50:17;8.75;;;3.70;;
59607;SDS011;45426;44.726;10.390;2023-09-07T06:52:43;8.10;;;3.67;;
59607;SDS011;45426;44.726;10.390;2023-09-07T06:55:08;9.48;;;3.88;;
59607;SDS011;45426;44.726;10.390;2023-09-07T06:57:34;8.32;;;3.63;;
59607;SDS011;45426;44.726;10.390;2023-09-07T06:59:59;11.63;;;3.90;;
59607;SDS011;45426;44.726;10.390;2023-09-07T07:02:25;7.50;;;3.80;;
59607;SDS011;45426;44.726;10.390;2023-09-07T07:04:50;6.80;;;3.88;;
59607;SDS011;45426;44.726;10.390;2023-09-07T07:07:17;9.15;;;3.75;;
59607;SDS011;45426;44.726;10.390;2023-09-07T07:09:43;11.52;;;3.58;;
59607;SDS011;45426;44.726;10.390;2023-09-07T07:12:08;10.38;;;3.90;;
59607;SDS011;45426;44.726;10.390;2023-09-07T07:14:34;6.82;;;4.45;;
59607;SDS011;45426;44.726;10.390;2023-09-07T07:16:59;9.43;;;4.60;;
59607;SDS011;45426;44.726;10.390;2023-09-07T07:19:27;10.48;;;3.75;;
59607;SDS011;45426;44.726;10.390;2023-09-07T07:21:53;10.55;;;4.00;;
59607;SDS011;45426;44.726;10.390;2023-09-07T07:24:18;10.57;;;3.83;;
59607;SDS011;45426;44.726;10.390;2023-09-07T07:26:44;9.90;;;4.07;;
59607;SDS011;45426;44.726;10.390;2023-09-07T07:29:09;9.18;;;4.25;;
59607;SDS011;45426;44.726;10.390;2023-09-07T07:31:34;9.93;;;4.10;;
59607;SDS011;45426;44.726;10.390;2023-09-07T07:34:00;7.95;;;4.03;;
59607;SDS011;45426;44.726;10.390;2023-09-07T07:36:25;8.93;;;4.65;;
59607;SDS011;45426;44.726;10.390;2023-09-07T07:38:51;12.77;;;4.80;;
59607;SDS011;45426;44.726;10.390;2023-09-07T07:41:16;11.27;;;4.30;;
59607;SDS011;45426;44.726;10.390;2023-09-07T07:43:41;8.10;;;4.38;;
59607;SDS011;45426;44.726;10.390;2023-09-07T07:46:07;10.70;;;4.28;;
59607;SDS011;45426;44.726;10.390;2023-09-07T07:48:33;10.45;;;4.25;;
59607;SDS011;45426;44.726;10.390;2023-09-07T07:51:02;10.02;;;4.70;;
59607;SDS011;45426;44.726;10.390;2023-09-07T07:53:29;13.60;;;4.60;;
59607;SDS011;45426;44.726;10.390;2023-09-07T07:55:54;9.52;;;4.35;;
59607;SDS011;45426;44.726;10.390;2023-09-07T07:58:21;6.35;;;4.32;;
59607;SDS011;45426;44.726;10.390;2023-09-07T08:00:46;9.50;;;4.68;;
59607;SDS011;45426;44.726;10.390;2023-09-07T08:03:13;11.88;;;4.85;;
59607;SDS011;45426;44.726;10.390;2023-09-07T08:05:39;8.85;;;4.78;;
59607;SDS011;45426;44.726;10.390;2023-09-07T08:08:04;8.60;;;4.55;;
59607;SDS011;45426;44.726;10.390;2023-09-07T08:10:34;9.30;;;4.03;;
59607;SDS011;45426;44.726;10.390;2023-09-07T08:13:02;9.60;;;4.35;;
59607;SDS011;45426;44.726;10.390;2023-09-07T08:15:29;10.10;;;4.72;;
59607;SDS011;45426;44.726;10.390;2023-09-07T08:17:56;9.98;;;4.90;;
59607;SDS011;45426;44.726;10.390;2023-09-07T08:20:22;6.40;;;4.70;;
59607;SDS011;45426;44.726;10.390;2023-09-07T08:22:48;7.72;;;4.68;;
59607;SDS011;45426;44.726;10.390;2023-09-07T08:25:13;10.65;;;4.55;;
59607;SDS011;45426;44.726;10.390;2023-09-07T08:27:42;7.82;;;3.95;;
59607;SDS011;45426;44.726;10.390;2023-09-07T08:30:12;14.35;;;4.35;;
59607;SDS011;45426;44.726;10.390;2023-09-07T08:32:40;7.70;;;3.92;;
59607;SDS011;45426;44.726;10.390;2023-09-07T08:35:07;10.38;;;4.05;;
59607;SDS011;45426;44.726;10.390;2023-09-07T08:37:34;7.90;;;4.22;;
59607;SDS011;45426;44.726;10.390;2023-09-07T08:40:00;8.88;;;4.47;;
59607;SDS011;45426;44.726;10.390;2023-09-07T08:42:25;9.90;;;4.15;;
59607;SDS011;45426;44.726;10.390;2023-09-07T08:44:51;10.90;;;3.75;;
59607;SDS011;45426;44.726;10.390;2023-09-07T08:47:23;8.63;;;3.78;;
59607;SDS011;45426;44.726;10.390;2023-09-07T08:49:50;9.50;;;3.75;;
59607;SDS011;45426;44.726;10.390;2023-09-07T08:52:16;9.25;;;3.70;;
59607;SDS011;45426;44.726;10.390;2023-09-07T08:54:43;6.38;;;3.60;;
59607;SDS011;45426;44.726;10.390;2023-09-07T08:57:10;6.93;;;4.00;;
59607;SDS011;45426;44.726;10.390;2023-09-07T08:59:36;8.57;;;3.60;;
59607;SDS011;45426;44.726;10.390;2023-09-07T09:02:01;10.00;;;3.95;;
59607;SDS011;45426;44.726;10.390;2023-09-07T09:04:29;5.43;;;3.67;;
59607;SDS011;45426;44.726;10.390;2023-09-07T09:06:55;6.97;;;3.47;;
59607;SDS011;45426;44.726;10.390;2023-09-07T09:09:22;6.88;;;3.67;;
59607;SDS011;45426;44.726;10.390;2023-09-07T09:11:49;9.20;;;3.33;;
59607;SDS011;45426;44.726;10.390;2023-09-07T09:14:18;8.02;;;3.80;;
59607;SDS011;45426;44.726;10.390;2023-09-07T09:16:50;9.63;;;3.80;;
59607;SDS011;45426;44.726;10.390;2023-09-07T09:19:16;7.00;;;3.70;;
59607;SDS011;45426;44.726;10.390;2023-09-07T09:21:44;8.77;;;3.55;;
59607;SDS011;45426;44.726;10.390;2023-09-07T09:24:10;9.13;;;3.75;;
59607;SDS011;45426;44.726;10.390;2023-09-07T09:26:37;5.88;;;3.30;;
59607;SDS011;45426;44.726;10.390;2023-09-07T09:29:02;7.88;;;4.03;;
59607;SDS011;45426;44.726;10.390;2023-09-07T09:31:29;10.38;;;3.50;;
59607;SDS011;45426;44.726;10.390;2023-09-07T09:33:54;8.10;;;3.47;;
59607;SDS011;45426;44.726;10.390;2023-09-07T09:36:20;6.40;;;3.58;;
59607;SDS011;45426;44.726;10.390;2023-09-07T09:38:47;6.68;;;3.45;;
59607;SDS011;45426;44.726;10.390;2023-09-07T09:41:14;7.18;;;3.95;;
59607;SDS011;45426;44.726;10.390;2023-09-07T09:43:42;5.63;;;3.65;;
59607;SDS011;45426;44.726;10.390;2023-09-07T09:46:09;7.47;;;4.10;;
59607;SDS011;45426;44.726;10.390;2023-09-07T09:48:35;6.90;;;3.75;;
59607;SDS011;45426;44.726;10.390;2023-09-07T09:51:02;8.82;;;3.70;;
59607;SDS011;45426;44.726;10.390;2023-09-07T09:53:29;8.95;;;3.75;;
59607;SDS011;45426;44.726;10.390;2023-09-07T09:55:55;8.38;;;3.50;;
59607;SDS011;45426;44.726;10.390;2023-09-07T09:58:21;8.80;;;3.63;;
59607;SDS011;45426;44.726;10.390;2023-09-07T10:00:48;9.40;;;3.65;;
59607;SDS011;45426;44.726;10.390;2023-09-07T10:03:23;7.03;;;3.60;;
59607;SDS011;45426;44.726;10.390;2023-09-07T10:05:51;7.88;;;3.70;;
59607;SDS011;45426;44.726;10.390;2023-09-07T10:08:17;7.28;;;3.50;;
59607;SDS011;45426;44.726;10.390;2023-09-07T10:10:46;5.82;;;3.30;;
59607;SDS011;45426;44.726;10.390;2023-09-07T10:13:15;9.23;;;3.58;;
59607;SDS011;45426;44.726;10.390;2023-09-07T10:15:42;8.55;;;3.90;;
59607;SDS011;45426;44.726;10.390;2023-09-07T10:23:23;10.43;;;3.65;;
59607;SDS011;45426;44.726;10.390;2023-09-07T10:25:59;6.32;;;3.63;;
59607;SDS011;45426;44.726;10.390;2023-09-07T10:28:25;6.80;;;3.75;;
59607;SDS011;45426;44.726;10.390;2023-09-07T10:31:24;7.45;;;3.80;;
59607;SDS011;45426;44.726;10.390;2023-09-07T10:33:43;8.88;;;3.42;;
59607;SDS011;45426;44.726;10.390;2023-09-07T10:36:19;7.95;;;3.50;;
59607;SDS011;45426;44.726;10.390;2023-09-07T10:38:55;11.32;;;3.55;;
59607;SDS011;45426;44.726;10.390;2023-09-07T10:41:21;11.88;;;3.90;;
59607;SDS011;45426;44.726;10.390;2023-09-07T10:43:50;8.73;;;3.72;;
59607;SDS011;45426;44.726;10.390;2023-09-07T10:46:20;5.78;;;3.72;;
59607;SDS011;45426;44.726;10.390;2023-09-07T10:48:50;9.23;;;3.83;;
59607;SDS011;45426;44.726;10.390;2023-09-07T10:51:17;6.63;;;3.90;;
59607;SDS011;45426;44.726;10.390;2023-09-07T10:53:43;8.32;;;3.90;;
59607;SDS011;45426;44.726;10.390;2023-09-07T10:56:09;7.95;;;3.75;;
59607;SDS011;45426;44.726;10.390;2023-09-07T10:58:35;7.93;;;3.70;;
59607;SDS011;45426;44.726;10.390;2023-09-07T11:01:05;8.32;;;3.90;;
59607;SDS011;45426;44.726;10.390;2023-09-07T11:03:31;6.90;;;3.90;;
59607;SDS011;45426;44.726;10.390;2023-09-07T11:06:01;9.25;;;4.45;;
59607;SDS011;45426;44.726;10.390;2023-09-07T11:08:30;8.48;;;4.30;;
59607;SDS011;45426;44.726;10.390;2023-09-07T11:10:56;11.02;;;3.72;;
59607;SDS011;45426;44.726;10.390;2023-09-07T11:13:25;12.70;;;3.67;;
59607;SDS011;45426;44.726;10.390;2023-09-07T11:15:55;14.05;;;3.70;;
59607;SDS011;45426;44.726;10.390;2023-09-07T11:18:22;9.18;;;3.80;;
59607;SDS011;45426;44.726;10.390;2023-09-07T11:20:49;5.97;;;3.38;;
59607;SDS011;45426;44.726;10.390;2023-09-07T11:23:19;8.52;;;3.47;;
59607;SDS011;45426;44.726;10.390;2023-09-07T11:25:46;9.27;;;3.40;;
59607;SDS011;45426;44.726;10.390;2023-09-07T11:28:14;15.52;;;4.10;;
59607;SDS011;45426;44.726;10.390;2023-09-07T11:30:51;7.95;;;3.30;;
59607;SDS011;45426;44.726;10.390;2023-09-07T11:33:20;7.47;;;3.20;;
59607;SDS011;45426;44.726;10.390;2023-09-07T11:35:47;6.15;;;3.13;;
59607;SDS011;45426;44.726;10.390;2023-09-07T11:38:13;5.72;;;3.38;;
59607;SDS011;45426;44.726;10.390;2023-09-07T11:40:39;9.48;;;3.78;;
59607;SDS011;45426;44.726;10.390;2023-09-07T11:43:04;8.95;;;3.83;;
59607;SDS011;45426;44.726;10.390;2023-09-07T11:45:29;9.00;;;3.53;;
59607;SDS011;45426;44.726;10.390;2023-09-07T11:47:57;5.55;;;3.40;;
59607;SDS011;45426;44.726;10.390;2023-09-07T11:50:23;7.45;;;3.80;;
59607;SDS011;45426;44.726;10.390;2023-09-07T11:52:50;5.93;;;3.45;;
59607;SDS011;45426;44.726;10.390;2023-09-07T11:55:16;6.60;;;3.60;;
59607;SDS011;45426;44.726;10.390;2023-09-07T11:57:41;6.10;;;3.20;;
59607;SDS011;45426;44.726;10.390;2023-09-07T12:00:07;6.85;;;3.55;;
59607;SDS011;45426;44.726;10.390;2023-09-07T12:02:37;6.38;;;3.40;;
59607;SDS011;45426;44.726;10.390;2023-09-07T12:05:04;5.70;;;3.58;;
59607;SDS011;45426;44.726;10.390;2023-09-07T12:07:31;6.50;;;3.50;;
59607;SDS011;45426;44.726;10.390;2023-09-07T12:09:57;6.80;;;3.50;;
59607;SDS011;45426;44.726;10.390;2023-09-07T12:12:23;6.85;;;4.00;;
59607;SDS011;45426;44.726;10.390;2023-09-07T12:14:48;6.20;;;3.17;;
59607;SDS011;45426;44.726;10.390;2023-09-07T12:17:14;6.13;;;3.35;;
59607;SDS011;45426;44.726;10.390;2023-09-07T12:19:39;6.20;;;3.83;;
59607;SDS011;45426;44.726;10.390;2023-09-07T12:22:07;7.25;;;3.53;;
59607;SDS011;45426;44.726;10.390;2023-09-07T12:24:33;8.35;;;3.38;;
59607;SDS011;45426;44.726;10.390;2023-09-07T12:26:58;6.78;;;3.33;;
59607;SDS011;45426;44.726;10.390;2023-09-07T12:29:24;9.55;;;5.05;;
59607;SDS011;45426;44.726;10.390;2023-09-07T12:31:50;9.07;;;3.63;;
59607;SDS011;45426;44.726;10.390;2023-09-07T12:34:16;6.85;;;3.70;;
59607;SDS011;45426;44.726;10.390;2023-09-07T12:36:41;13.75;;;4.05;;
59607;SDS011;45426;44.726;10.390;2023-09-07T12:39:07;6.68;;;3.80;;
59607;SDS011;45426;44.726;10.390;2023-09-07T12:41:32;8.02;;;3.40;;
59607;SDS011;45426;44.726;10.390;2023-09-07T12:43:58;7.85;;;3.50;;
59607;SDS011;45426;44.726;10.390;2023-09-07T12:46:23;5.95;;;3.40;;
59607;SDS011;45426;44.726;10.390;2023-09-07T12:48:48;6.55;;;3.30;;
59607;SDS011;45426;44.726;10.390;2023-09-07T12:51:14;5.38;;;3.30;;
59607;SDS011;45426;44.726;10.390;2023-09-07T12:53:39;8.05;;;3.10;;
59607;SDS011;45426;44.726;10.390;2023-09-07T12:56:06;9.25;;;3.60;;
59607;SDS011;45426;44.726;10.390;2023-09-07T12:58:31;9.40;;;3.67;;
59607;SDS011;45426;44.726;10.390;2023-09-07T13:00:57;7.88;;;3.60;;
59607;SDS011;45426;44.726;10.390;2023-09-07T13:03:22;6.90;;;3.45;;
59607;SDS011;45426;44.726;10.390;2023-09-07T13:05:48;6.50;;;3.13;;
59607;SDS011;45426;44.726;10.390;2023-09-07T13:08:14;7.82;;;3.53;;
59607;SDS011;45426;44.726;10.390;2023-09-07T13:10:39;5.57;;;3.72;;
59607;SDS011;45426;44.726;10.390;2023-09-07T13:13:05;8.35;;;3.40;;
59607;SDS011;45426;44.726;10.390;2023-09-07T13:15:31;9.55;;;3.47;;
59607;SDS011;45426;44.726;10.390;2023-09-07T13:17:56;6.38;;;3.38;;
59607;SDS011;45426;44.726;10.390;2023-09-07T13:20:22;7.55;;;3.55;;
59607;SDS011;45426;44.726;10.390;2023-09-07T13:22:47;6.65;;;3.40;;
59607;SDS011;45426;44.726;10.390;2023-09-07T13:25:12;7.40;;;3.28;;
59607;SDS011;45426;44.726;10.390;2023-09-07T13:27:38;5.20;;;3.22;;
59607;SDS011;45426;44.726;10.390;2023-09-07T13:30:04;6.00;;;3.17;;
59607;SDS011;45426;44.726;10.390;2023-09-07T13:32:31;9.02;;;3.58;;
59607;SDS011;45426;44.726;10.390;2023-09-07T13:34:57;6.63;;;3.17;;
59607;SDS011;45426;44.726;10.390;2023-09-07T13:37:23;6.57;;;3.30;;
59607;SDS011;45426;44.726;10.390;2023-09-07T13:39:48;6.05;;;3.03;;
59607;SDS011;45426;44.726;10.390;2023-09-07T13:42:14;5.55;;;3.28;;
59607;SDS011;45426;44.726;10.390;2023-09-07T13:44:40;6.30;;;3.30;;
59607;SDS011;45426;44.726;10.390;2023-09-07T13:47:05;5.53;;;3.20;;
59607;SDS011;45426;44.726;10.390;2023-09-07T13:49:31;6.20;;;3.40;;
59607;SDS011;45426;44.726;10.390;2023-09-07T13:51:57;4.72;;;3.22;;
59607;SDS011;45426;44.726;10.390;2023-09-07T13:54:22;7.20;;;3.42;;
59607;SDS011;45426;44.726;10.390;2023-09-07T13:56:48;8.05;;;3.17;;
59607;SDS011;45426;44.726;10.390;2023-09-07T13:59:13;7.25;;;3.35;;
59607;SDS011;45426;44.726;10.390;2023-09-07T14:01:39;8.25;;;3.15;;
59607;SDS011;45426;44.726;10.390;2023-09-07T14:04:04;6.00;;;3.20;;
59607;SDS011;45426;44.726;10.390;2023-09-07T14:06:30;5.68;;;3.33;;
59607;SDS011;45426;44.726;10.390;2023-09-07T14:08:55;7.00;;;3.33;;
59607;SDS011;45426;44.726;10.390;2023-09-07T14:11:21;8.45;;;3.28;;
59607;SDS011;45426;44.726;10.390;2023-09-07T14:13:50;7.05;;;3.25;;
59607;SDS011;45426;44.726;10.390;2023-09-07T14:16:19;6.13;;;3.20;;
59607;SDS011;45426;44.726;10.390;2023-09-07T14:18:45;6.68;;;3.40;;
59607;SDS011;45426;44.726;10.390;2023-09-07T14:21:12;6.03;;;3.25;;
59607;SDS011;45426;44.726;10.390;2023-09-07T14:23:38;5.55;;;3.20;;
59607;SDS011;45426;44.726;10.390;2023-09-07T14:26:04;6.20;;;3.28;;
59607;SDS011;45426;44.726;10.390;2023-09-07T14:28:29;8.48;;;3.80;;
59607;SDS011;45426;44.726;10.390;2023-09-07T14:30:54;4.22;;;3.42;;